sensor_id;sensor_type;location;lat;lon;timestamp;temperature;humidity
26621;DHT22;14253;44.840;10.444;2024-02-28T00:01:04;9.70;99.90
26621;DHT22;14253;44.840;10.444;2024-02-28T00:03:30;9.70;99.90
26621;DHT22;14253;44.840;10.444;2024-02-28T00:05:58;9.70;99.90
26621;DHT22;14253;44.840;10.444;2024-02-28T00:08:23;9.70;99.90
26621;DHT22;14253;44.840;10.444;2024-02-28T00:10:49;9.70;99.90
26621;DHT22;14253;44.840;10.444;2024-02-28T00:13:15;9.70;99.90
26621;DHT22;14253;44.840;10.444;2024-02-28T00:15:42;9.70;99.90
26621;DHT22;14253;44.840;10.444;2024-02-28T00:18:08;9.80;99.90
26621;DHT22;14253;44.840;10.444;2024-02-28T00:20:34;9.80;99.90
26621;DHT22;14253;44.840;10.444;2024-02-28T00:23:00;9.80;99.90
26621;DHT22;14253;44.840;10.444;2024-02-28T00:25:26;9.80;99.90
26621;DHT22;14253;44.840;10.444;2024-02-28T00:27:52;9.80;99.90
26621;DHT22;14253;44.840;10.444;2024-02-28T00:30:18;9.80;99.90
26621;DHT22;14253;44.840;10.444;2024-02-28T00:32:44;9.90;99.90
26621;DHT22;14253;44.840;10.444;2024-02-28T00:35:10;9.90;99.90
26621;DHT22;14253;44.840;10.444;2024-02-28T00:37:36;9.90;99.90
26621;DHT22;14253;44.840;10.444;2024-02-28T00:40:02;9.90;99.90
26621;DHT22;14253;44.840;10.444;2024-02-28T00:42:28;9.90;99.90
26621;DHT22;14253;44.840;10.444;2024-02-28T00:44:54;10.10;99.90
26621;DHT22;14253;44.840;10.444;2024-02-28T00:47:20;10.10;99.90
26621;DHT22;14253;44.840;10.444;2024-02-28T00:49:46;10.10;99.90
26621;DHT22;14253;44.840;10.444;2024-02-28T00:52:12;10.20;99.90
26621;DHT22;14253;44.840;10.444;2024-02-28T00:54:38;10.20;99.90
26621;DHT22;14253;44.840;10.444;2024-02-28T00:57:04;10.20;99.90
26621;DHT22;14253;44.840;10.444;2024-02-28T00:59:30;10.30;99.90
26621;DHT22;14253;44.840;10.444;2024-02-28T01:01:56;10.30;99.90
26621;DHT22;14253;44.840;10.444;2024-02-28T01:04:22;10.30;99.90
26621;DHT22;14253;44.840;10.444;2024-02-28T01:06:48;10.30;99.90
26621;DHT22;14253;44.840;10.444;2024-02-28T01:09:14;10.30;99.90
26621;DHT22;14253;44.840;10.444;2024-02-28T01:11:40;10.30;99.90
26621;DHT22;14253;44.840;10.444;2024-02-28T01:14:06;10.30;99.90
26621;DHT22;14253;44.840;10.444;2024-02-28T01:16:32;10.30;99.90
26621;DHT22;14253;44.840;10.444;2024-02-28T01:18:57;10.30;99.90
26621;DHT22;14253;44.840;10.444;2024-02-28T01:21:23;10.30;99.90
26621;DHT22;14253;44.840;10.444;2024-02-28T01:23:49;10.30;99.90
26621;DHT22;14253;44.840;10.444;2024-02-28T01:26:15;10.30;99.90
26621;DHT22;14253;44.840;10.444;2024-02-28T01:28:41;10.30;99.90
26621;DHT22;14253;44.840;10.444;2024-02-28T01:31:08;10.30;99.90
26621;DHT22;14253;44.840;10.444;2024-02-28T01:33:34;10.30;99.90
26621;DHT22;14253;44.840;10.444;2024-02-28T01:36:01;10.30;99.90
26621;DHT22;14253;44.840;10.444;2024-02-28T01:38:27;10.30;99.90
26621;DHT22;14253;44.840;10.444;2024-02-28T01:40:53;10.30;99.90
26621;DHT22;14253;44.840;10.444;2024-02-28T01:43:19;10.30;99.90
26621;DHT22;14253;44.840;10.444;2024-02-28T01:45:45;10.30;99.90
26621;DHT22;14253;44.840;10.444;2024-02-28T01:48:12;10.30;99.90
26621;DHT22;14253;44.840;10.444;2024-02-28T01:50:38;10.30;99.90
26621;DHT22;14253;44.840;10.444;2024-02-28T01:53:06;10.40;99.90
26621;DHT22;14253;44.840;10.444;2024-02-28T01:55:35;10.40;99.90
26621;DHT22;14253;44.840;10.444;2024-02-28T01:58:02;10.40;99.90
26621;DHT22;14253;44.840;10.444;2024-02-28T02:00:33;10.40;99.90
26621;DHT22;14253;44.840;10.444;2024-02-28T02:03:00;10.40;99.90
26621;DHT22;14253;44.840;10.444;2024-02-28T02:05:27;10.40;99.90
26621;DHT22;14253;44.840;10.444;2024-02-28T02:07:53;10.30;99.90
26621;DHT22;14253;44.840;10.444;2024-02-28T02:10:20;10.30;99.90
26621;DHT22;14253;44.840;10.444;2024-02-28T02:12:46;10.30;99.90
26621;DHT22;14253;44.840;10.444;2024-02-28T02:15:12;10.30;99.90
26621;DHT22;14253;44.840;10.444;2024-02-28T02:17:38;10.30;99.90
26621;DHT22;14253;44.840;10.444;2024-02-28T02:20:05;10.30;99.90
26621;DHT22;14253;44.840;10.444;2024-02-28T02:22:37;10.30;99.90
26621;DHT22;14253;44.840;10.444;2024-02-28T02:25:04;10.30;99.90
26621;DHT22;14253;44.840;10.444;2024-02-28T02:27:30;10.30;99.90
26621;DHT22;14253;44.840;10.444;2024-02-28T02:29:57;10.30;99.90
26621;DHT22;14253;44.840;10.444;2024-02-28T02:32:22;10.30;99.90
26621;DHT22;14253;44.840;10.444;2024-02-28T02:34:48;10.30;99.90
26621;DHT22;14253;44.840;10.444;2024-02-28T02:37:14;10.30;99.90
26621;DHT22;14253;44.840;10.444;2024-02-28T02:39:41;10.30;99.90
26621;DHT22;14253;44.840;10.444;2024-02-28T02:42:06;10.30;99.90
26621;DHT22;14253;44.840;10.444;2024-02-28T02:44:33;10.30;99.90
26621;DHT22;14253;44.840;10.444;2024-02-28T02:46:59;10.30;99.90
26621;DHT22;14253;44.840;10.444;2024-02-28T02:49:25;10.30;99.90
26621;DHT22;14253;44.840;10.444;2024-02-28T02:51:51;10.30;99.90
26621;DHT22;14253;44.840;10.444;2024-02-28T02:54:17;10.30;99.90
26621;DHT22;14253;44.840;10.444;2024-02-28T02:56:43;10.30;99.90
26621;DHT22;14253;44.840;10.444;2024-02-28T02:59:10;10.30;99.90
26621;DHT22;14253;44.840;10.444;2024-02-28T03:01:37;10.30;99.90
26621;DHT22;14253;44.840;10.444;2024-02-28T03:04:03;10.30;99.90
26621;DHT22;14253;44.840;10.444;2024-02-28T03:06:29;10.30;99.90
26621;DHT22;14253;44.840;10.444;2024-02-28T03:08:55;10.30;99.90
26621;DHT22;14253;44.840;10.444;2024-02-28T03:11:21;10.30;99.90
26621;DHT22;14253;44.840;10.444;2024-02-28T03:13:46;10.30;99.90
26621;DHT22;14253;44.840;10.444;2024-02-28T03:16:12;10.30;99.90
26621;DHT22;14253;44.840;10.444;2024-02-28T03:18:38;10.20;99.90
26621;DHT22;14253;44.840;10.444;2024-02-28T03:21:04;10.30;99.90
26621;DHT22;14253;44.840;10.444;2024-02-28T03:23:30;10.30;99.90
26621;DHT22;14253;44.840;10.444;2024-02-28T03:25:56;10.30;99.90
26621;DHT22;14253;44.840;10.444;2024-02-28T03:28:22;10.30;99.90
26621;DHT22;14253;44.840;10.444;2024-02-28T03:30:48;10.30;99.90
26621;DHT22;14253;44.840;10.444;2024-02-28T03:33:14;10.30;99.90
26621;DHT22;14253;44.840;10.444;2024-02-28T03:35:40;10.30;99.90
26621;DHT22;14253;44.840;10.444;2024-02-28T03:38:06;10.30;99.90
26621;DHT22;14253;44.840;10.444;2024-02-28T03:40:32;10.30;99.90
26621;DHT22;14253;44.840;10.444;2024-02-28T03:42:58;10.30;99.90
26621;DHT22;14253;44.840;10.444;2024-02-28T03:45:27;10.30;99.90
26621;DHT22;14253;44.840;10.444;2024-02-28T03:47:54;10.30;99.90
26621;DHT22;14253;44.840;10.444;2024-02-28T03:50:21;10.30;99.90
26621;DHT22;14253;44.840;10.444;2024-02-28T03:52:47;10.30;99.90
26621;DHT22;14253;44.840;10.444;2024-02-28T03:55:13;10.30;99.90
26621;DHT22;14253;44.840;10.444;2024-02-28T03:57:39;10.30;99.90
26621;DHT22;14253;44.840;10.444;2024-02-28T04:00:05;10.20;99.90
26621;DHT22;14253;44.840;10.444;2024-02-28T04:02:37;10.20;99.90
26621;DHT22;14253;44.840;10.444;2024-02-28T04:05:04;10.20;99.90
26621;DHT22;14253;44.840;10.444;2024-02-28T04:07:30;10.20;99.90
26621;DHT22;14253;44.840;10.444;2024-02-28T04:09:56;10.20;99.90
26621;DHT22;14253;44.840;10.444;2024-02-28T04:12:22;10.20;99.90
26621;DHT22;14253;44.840;10.444;2024-02-28T04:14:47;10.20;99.90
26621;DHT22;14253;44.840;10.444;2024-02-28T04:17:13;10.20;99.90
26621;DHT22;14253;44.840;10.444;2024-02-28T04:19:39;10.20;99.90
26621;DHT22;14253;44.840;10.444;2024-02-28T04:22:05;10.20;99.90
26621;DHT22;14253;44.840;10.444;2024-02-28T04:24:31;10.20;99.90
26621;DHT22;14253;44.840;10.444;2024-02-28T04:26:58;10.20;99.90
26621;DHT22;14253;44.840;10.444;2024-02-28T04:29:25;10.20;99.90
26621;DHT22;14253;44.840;10.444;2024-02-28T04:31:51;10.30;99.90
26621;DHT22;14253;44.840;10.444;2024-02-28T04:34:17;10.30;99.90
26621;DHT22;14253;44.840;10.444;2024-02-28T04:36:43;10.30;99.90
26621;DHT22;14253;44.840;10.444;2024-02-28T04:39:09;10.30;99.90
26621;DHT22;14253;44.840;10.444;2024-02-28T04:41:35;10.30;99.90
26621;DHT22;14253;44.840;10.444;2024-02-28T04:44:01;10.30;99.90
26621;DHT22;14253;44.840;10.444;2024-02-28T04:46:27;10.30;99.90
26621;DHT22;14253;44.840;10.444;2024-02-28T04:48:53;10.30;99.90
26621;DHT22;14253;44.840;10.444;2024-02-28T04:51:18;10.30;99.90
26621;DHT22;14253;44.840;10.444;2024-02-28T04:53:45;10.30;99.90
26621;DHT22;14253;44.840;10.444;2024-02-28T04:56:10;10.30;99.90
26621;DHT22;14253;44.840;10.444;2024-02-28T04:58:37;10.30;99.90
26621;DHT22;14253;44.840;10.444;2024-02-28T05:01:03;10.30;99.90
26621;DHT22;14253;44.840;10.444;2024-02-28T05:03:29;10.30;99.90
26621;DHT22;14253;44.840;10.444;2024-02-28T05:05:55;10.20;99.90
26621;DHT22;14253;44.840;10.444;2024-02-28T05:08:21;10.20;99.90
26621;DHT22;14253;44.840;10.444;2024-02-28T05:10:47;10.20;99.90
26621;DHT22;14253;44.840;10.444;2024-02-28T05:13:14;10.30;99.90
26621;DHT22;14253;44.840;10.444;2024-02-28T05:15:40;10.30;99.90
26621;DHT22;14253;44.840;10.444;2024-02-28T05:18:06;10.20;99.90
26621;DHT22;14253;44.840;10.444;2024-02-28T05:20:32;10.20;99.90
26621;DHT22;14253;44.840;10.444;2024-02-28T05:22:58;10.20;99.90
26621;DHT22;14253;44.840;10.444;2024-02-28T05:25:24;10.30;99.90
26621;DHT22;14253;44.840;10.444;2024-02-28T05:27:50;10.30;99.90
26621;DHT22;14253;44.840;10.444;2024-02-28T05:30:16;10.30;99.90
26621;DHT22;14253;44.840;10.444;2024-02-28T05:32:42;10.20;99.90
26621;DHT22;14253;44.840;10.444;2024-02-28T05:35:08;10.30;99.90
26621;DHT22;14253;44.840;10.444;2024-02-28T05:37:37;10.30;99.90
26621;DHT22;14253;44.840;10.444;2024-02-28T05:40:03;10.30;99.90
26621;DHT22;14253;44.840;10.444;2024-02-28T05:42:29;10.30;99.90
26621;DHT22;14253;44.840;10.444;2024-02-28T05:44:56;10.30;99.90
26621;DHT22;14253;44.840;10.444;2024-02-28T05:47:23;10.30;99.90
26621;DHT22;14253;44.840;10.444;2024-02-28T05:49:48;10.30;99.90
26621;DHT22;14253;44.840;10.444;2024-02-28T05:52:14;10.30;99.90
26621;DHT22;14253;44.840;10.444;2024-02-28T05:54:40;10.30;99.90
26621;DHT22;14253;44.840;10.444;2024-02-28T05:57:06;10.30;99.90
26621;DHT22;14253;44.840;10.444;2024-02-28T05:59:32;10.30;99.90
26621;DHT22;14253;44.840;10.444;2024-02-28T06:01:58;10.30;99.90
26621;DHT22;14253;44.840;10.444;2024-02-28T06:04:24;10.30;99.90
26621;DHT22;14253;44.840;10.444;2024-02-28T06:06:50;10.20;99.90
26621;DHT22;14253;44.840;10.444;2024-02-28T06:09:16;10.30;99.90
26621;DHT22;14253;44.840;10.444;2024-02-28T06:11:42;10.30;99.90
26621;DHT22;14253;44.840;10.444;2024-02-28T06:14:08;10.30;99.90
26621;DHT22;14253;44.840;10.444;2024-02-28T06:16:34;10.30;99.90
26621;DHT22;14253;44.840;10.444;2024-02-28T06:19:00;10.30;99.90
26621;DHT22;14253;44.840;10.444;2024-02-28T06:21:26;10.30;99.90
26621;DHT22;14253;44.840;10.444;2024-02-28T06:23:52;10.30;99.90
26621;DHT22;14253;44.840;10.444;2024-02-28T06:26:18;10.30;99.90
26621;DHT22;14253;44.840;10.444;2024-02-28T06:28:44;10.40;99.90
26621;DHT22;14253;44.840;10.444;2024-02-28T06:31:16;10.30;99.90
26621;DHT22;14253;44.840;10.444;2024-02-28T06:33:43;10.40;99.90
26621;DHT22;14253;44.840;10.444;2024-02-28T06:36:09;10.40;99.90
26621;DHT22;14253;44.840;10.444;2024-02-28T06:38:35;10.40;99.90
26621;DHT22;14253;44.840;10.444;2024-02-28T06:41:04;10.40;99.90
26621;DHT22;14253;44.840;10.444;2024-02-28T06:43:33;10.40;99.90
26621;DHT22;14253;44.840;10.444;2024-02-28T06:46:00;10.40;99.90
26621;DHT22;14253;44.840;10.444;2024-02-28T06:48:26;10.40;99.90
26621;DHT22;14253;44.840;10.444;2024-02-28T06:50:51;10.40;99.90
26621;DHT22;14253;44.840;10.444;2024-02-28T06:53:17;10.40;99.90
26621;DHT22;14253;44.840;10.444;2024-02-28T06:55:43;10.40;99.90
26621;DHT22;14253;44.840;10.444;2024-02-28T06:58:11;10.50;99.90
26621;DHT22;14253;44.840;10.444;2024-02-28T07:00:37;10.40;99.90
26621;DHT22;14253;44.840;10.444;2024-02-28T07:03:03;10.50;99.90
26621;DHT22;14253;44.840;10.444;2024-02-28T07:05:30;10.50;99.90
26621;DHT22;14253;44.840;10.444;2024-02-28T07:07:55;10.50;99.90
26621;DHT22;14253;44.840;10.444;2024-02-28T07:10:21;10.50;99.90
26621;DHT22;14253;44.840;10.444;2024-02-28T07:12:49;10.50;99.90
26621;DHT22;14253;44.840;10.444;2024-02-28T07:15:15;10.50;99.90
26621;DHT22;14253;44.840;10.444;2024-02-28T07:17:45;10.50;99.90
26621;DHT22;14253;44.840;10.444;2024-02-28T07:20:11;10.50;99.90
26621;DHT22;14253;44.840;10.444;2024-02-28T07:22:45;10.60;99.90
26621;DHT22;14253;44.840;10.444;2024-02-28T07:25:12;10.60;99.90
26621;DHT22;14253;44.840;10.444;2024-02-28T07:27:37;10.50;99.90
26621;DHT22;14253;44.840;10.444;2024-02-28T07:30:04;10.60;99.90
26621;DHT22;14253;44.840;10.444;2024-02-28T07:32:30;10.60;99.90
26621;DHT22;14253;44.840;10.444;2024-02-28T07:35:03;10.60;99.90
26621;DHT22;14253;44.840;10.444;2024-02-28T07:37:29;10.60;99.90
26621;DHT22;14253;44.840;10.444;2024-02-28T07:39:55;10.60;99.90
26621;DHT22;14253;44.840;10.444;2024-02-28T07:42:21;10.60;99.90
26621;DHT22;14253;44.840;10.444;2024-02-28T07:44:47;10.70;99.90
26621;DHT22;14253;44.840;10.444;2024-02-28T07:47:14;10.70;99.90
26621;DHT22;14253;44.840;10.444;2024-02-28T07:49:40;10.70;99.90
26621;DHT22;14253;44.840;10.444;2024-02-28T07:52:06;10.70;99.90
26621;DHT22;14253;44.840;10.444;2024-02-28T07:54:36;10.70;99.90
26621;DHT22;14253;44.840;10.444;2024-02-28T07:57:03;10.70;99.90
26621;DHT22;14253;44.840;10.444;2024-02-28T07:59:42;10.80;99.90
26621;DHT22;14253;44.840;10.444;2024-02-28T08:02:14;10.70;99.90
26621;DHT22;14253;44.840;10.444;2024-02-28T08:04:40;10.70;99.90
26621;DHT22;14253;44.840;10.444;2024-02-28T08:07:06;10.70;99.90
26621;DHT22;14253;44.840;10.444;2024-02-28T08:09:32;10.70;99.90
26621;DHT22;14253;44.840;10.444;2024-02-28T08:11:58;10.80;99.90
26621;DHT22;14253;44.840;10.444;2024-02-28T08:14:24;10.80;99.90
26621;DHT22;14253;44.840;10.444;2024-02-28T08:16:51;10.80;99.90
26621;DHT22;14253;44.840;10.444;2024-02-28T08:19:20;10.90;99.90
26621;DHT22;14253;44.840;10.444;2024-02-28T08:21:55;10.80;99.90
26621;DHT22;14253;44.840;10.444;2024-02-28T08:24:28;10.90;99.90
26621;DHT22;14253;44.840;10.444;2024-02-28T08:27:00;10.90;99.90
26621;DHT22;14253;44.840;10.444;2024-02-28T08:29:32;10.90;99.90
26621;DHT22;14253;44.840;10.444;2024-02-28T08:32:05;10.90;99.90
26621;DHT22;14253;44.840;10.444;2024-02-28T08:34:38;10.90;99.90
26621;DHT22;14253;44.840;10.444;2024-02-28T08:37:10;10.90;99.90
26621;DHT22;14253;44.840;10.444;2024-02-28T08:39:40;10.90;99.90
26621;DHT22;14253;44.840;10.444;2024-02-28T08:42:06;10.90;99.90
26621;DHT22;14253;44.840;10.444;2024-02-28T08:44:32;10.90;99.90
26621;DHT22;14253;44.840;10.444;2024-02-28T08:46:58;10.90;99.90
26621;DHT22;14253;44.840;10.444;2024-02-28T08:49:24;10.90;99.90
26621;DHT22;14253;44.840;10.444;2024-02-28T08:51:50;10.90;99.90
26621;DHT22;14253;44.840;10.444;2024-02-28T08:54:16;10.90;99.90
26621;DHT22;14253;44.840;10.444;2024-02-28T08:56:43;11.00;99.90
26621;DHT22;14253;44.840;10.444;2024-02-28T08:59:10;10.90;99.90
26621;DHT22;14253;44.840;10.444;2024-02-28T09:01:36;11.00;99.90
26621;DHT22;14253;44.840;10.444;2024-02-28T09:04:02;11.00;99.90
26621;DHT22;14253;44.840;10.444;2024-02-28T09:06:30;11.10;99.90
26621;DHT22;14253;44.840;10.444;2024-02-28T09:08:56;11.20;99.90
26621;DHT22;14253;44.840;10.444;2024-02-28T09:11:22;11.20;99.90
26621;DHT22;14253;44.840;10.444;2024-02-28T09:13:48;11.20;99.90
26621;DHT22;14253;44.840;10.444;2024-02-28T09:16:17;11.20;99.90
26621;DHT22;14253;44.840;10.444;2024-02-28T09:18:43;11.30;99.90
26621;DHT22;14253;44.840;10.444;2024-02-28T09:21:09;11.30;99.90
26621;DHT22;14253;44.840;10.444;2024-02-28T09:23:38;11.40;99.90
26621;DHT22;14253;44.840;10.444;2024-02-28T09:26:05;11.50;99.90
26621;DHT22;14253;44.840;10.444;2024-02-28T09:28:31;11.50;99.90
26621;DHT22;14253;44.840;10.444;2024-02-28T09:30:58;11.50;99.90
26621;DHT22;14253;44.840;10.444;2024-02-28T09:33:24;11.50;99.90
26621;DHT22;14253;44.840;10.444;2024-02-28T09:35:50;11.50;99.90
26621;DHT22;14253;44.840;10.444;2024-02-28T09:38:16;11.50;99.90
26621;DHT22;14253;44.840;10.444;2024-02-28T09:40:46;11.50;99.90
26621;DHT22;14253;44.840;10.444;2024-02-28T09:43:41;11.50;99.90
26621;DHT22;14253;44.840;10.444;2024-02-28T09:46:08;11.50;99.90
26621;DHT22;14253;44.840;10.444;2024-02-28T09:48:41;11.50;99.90
26621;DHT22;14253;44.840;10.444;2024-02-28T09:51:08;11.40;99.90
26621;DHT22;14253;44.840;10.444;2024-02-28T09:53:38;11.40;99.90
26621;DHT22;14253;44.840;10.444;2024-02-28T09:56:06;11.40;99.90
26621;DHT22;14253;44.840;10.444;2024-02-28T09:58:34;11.40;99.90
26621;DHT22;14253;44.840;10.444;2024-02-28T10:01:04;11.30;99.90
26621;DHT22;14253;44.840;10.444;2024-02-28T10:03:36;11.30;99.90
26621;DHT22;14253;44.840;10.444;2024-02-28T10:06:04;11.30;99.90
26621;DHT22;14253;44.840;10.444;2024-02-28T10:08:30;11.30;99.90
26621;DHT22;14253;44.840;10.444;2024-02-28T10:10:57;11.20;99.90
26621;DHT22;14253;44.840;10.444;2024-02-28T10:13:24;11.30;99.90
26621;DHT22;14253;44.840;10.444;2024-02-28T10:15:50;11.30;99.90
26621;DHT22;14253;44.840;10.444;2024-02-28T10:18:20;11.30;99.90
26621;DHT22;14253;44.840;10.444;2024-02-28T10:20:47;11.30;99.90
26621;DHT22;14253;44.840;10.444;2024-02-28T10:23:13;11.30;99.90
26621;DHT22;14253;44.840;10.444;2024-02-28T10:25:43;11.30;99.90
26621;DHT22;14253;44.840;10.444;2024-02-28T10:28:10;11.30;99.90
26621;DHT22;14253;44.840;10.444;2024-02-28T10:30:43;11.30;99.90
26621;DHT22;14253;44.840;10.444;2024-02-28T10:33:14;11.40;99.90
26621;DHT22;14253;44.840;10.444;2024-02-28T10:35:41;11.30;99.90
26621;DHT22;14253;44.840;10.444;2024-02-28T10:38:12;11.30;99.90
26621;DHT22;14253;44.840;10.444;2024-02-28T10:40:44;11.40;99.90
26621;DHT22;14253;44.840;10.444;2024-02-28T10:43:10;11.30;99.90
26621;DHT22;14253;44.840;10.444;2024-02-28T10:45:40;11.40;99.90
26621;DHT22;14253;44.840;10.444;2024-02-28T10:48:14;11.40;99.90
26621;DHT22;14253;44.840;10.444;2024-02-28T10:50:47;11.40;99.90
26621;DHT22;14253;44.840;10.444;2024-02-28T10:53:20;11.40;99.90
26621;DHT22;14253;44.840;10.444;2024-02-28T10:55:48;11.40;99.90
26621;DHT22;14253;44.840;10.444;2024-02-28T10:58:15;11.50;99.90
26621;DHT22;14253;44.840;10.444;2024-02-28T11:00:43;11.40;99.90
26621;DHT22;14253;44.840;10.444;2024-02-28T11:03:16;11.50;99.90
26621;DHT22;14253;44.840;10.444;2024-02-28T11:05:44;11.50;99.90
26621;DHT22;14253;44.840;10.444;2024-02-28T11:08:23;11.50;99.90
26621;DHT22;14253;44.840;10.444;2024-02-28T11:11:01;11.40;99.90
26621;DHT22;14253;44.840;10.444;2024-02-28T11:13:30;11.40;99.90
26621;DHT22;14253;44.840;10.444;2024-02-28T11:16:09;11.40;99.90
26621;DHT22;14253;44.840;10.444;2024-02-28T11:18:36;11.40;99.90
26621;DHT22;14253;44.840;10.444;2024-02-28T11:21:02;11.50;99.90
26621;DHT22;14253;44.840;10.444;2024-02-28T11:23:38;11.50;99.90
26621;DHT22;14253;44.840;10.444;2024-02-28T11:26:04;11.40;99.90
26621;DHT22;14253;44.840;10.444;2024-02-28T11:28:30;11.40;99.90
26621;DHT22;14253;44.840;10.444;2024-02-28T11:30:56;11.40;99.90
26621;DHT22;14253;44.840;10.444;2024-02-28T11:33:22;11.40;99.90
26621;DHT22;14253;44.840;10.444;2024-02-28T11:35:58;11.40;99.90
26621;DHT22;14253;44.840;10.444;2024-02-28T11:38:25;11.40;99.90
26621;DHT22;14253;44.840;10.444;2024-02-28T11:40:54;11.50;99.90
26621;DHT22;14253;44.840;10.444;2024-02-28T11:43:23;11.50;99.90
26621;DHT22;14253;44.840;10.444;2024-02-28T11:45:49;11.50;99.90
26621;DHT22;14253;44.840;10.444;2024-02-28T11:48:19;11.50;99.90
26621;DHT22;14253;44.840;10.444;2024-02-28T11:50:45;11.50;99.90
26621;DHT22;14253;44.840;10.444;2024-02-28T11:53:14;11.50;99.90
26621;DHT22;14253;44.840;10.444;2024-02-28T11:55:40;11.50;99.90
26621;DHT22;14253;44.840;10.444;2024-02-28T11:58:08;11.40;99.90
26621;DHT22;14253;44.840;10.444;2024-02-28T12:00:46;11.40;99.90
26621;DHT22;14253;44.840;10.444;2024-02-28T12:03:12;11.40;99.90
26621;DHT22;14253;44.840;10.444;2024-02-28T12:05:38;11.40;99.90
26621;DHT22;14253;44.840;10.444;2024-02-28T12:08:05;11.40;99.90
26621;DHT22;14253;44.840;10.444;2024-02-28T12:10:32;11.40;99.90
26621;DHT22;14253;44.840;10.444;2024-02-28T12:13:01;11.40;99.90
26621;DHT22;14253;44.840;10.444;2024-02-28T12:15:30;11.40;99.90
26621;DHT22;14253;44.840;10.444;2024-02-28T12:18:15;11.40;99.90
26621;DHT22;14253;44.840;10.444;2024-02-28T12:20:41;11.40;99.90
26621;DHT22;14253;44.840;10.444;2024-02-28T12:23:07;11.40;99.90
26621;DHT22;14253;44.840;10.444;2024-02-28T12:25:34;11.40;99.90
26621;DHT22;14253;44.840;10.444;2024-02-28T12:28:00;11.40;99.90
26621;DHT22;14253;44.840;10.444;2024-02-28T12:30:27;11.40;99.90
26621;DHT22;14253;44.840;10.444;2024-02-28T12:32:53;11.40;99.90
26621;DHT22;14253;44.840;10.444;2024-02-28T12:35:19;11.40;99.90
26621;DHT22;14253;44.840;10.444;2024-02-28T12:37:46;11.40;99.90
26621;DHT22;14253;44.840;10.444;2024-02-28T12:40:14;11.40;99.90
26621;DHT22;14253;44.840;10.444;2024-02-28T12:42:42;11.50;99.90
26621;DHT22;14253;44.840;10.444;2024-02-28T12:45:09;11.40;99.90
26621;DHT22;14253;44.840;10.444;2024-02-28T12:47:34;11.40;99.90
26621;DHT22;14253;44.840;10.444;2024-02-28T12:50:00;11.40;99.90
26621;DHT22;14253;44.840;10.444;2024-02-28T12:52:26;11.40;99.90
26621;DHT22;14253;44.840;10.444;2024-02-28T12:54:52;11.40;99.90
26621;DHT22;14253;44.840;10.444;2024-02-28T12:57:18;11.40;99.90
26621;DHT22;14253;44.840;10.444;2024-02-28T12:59:45;11.30;99.90
26621;DHT22;14253;44.840;10.444;2024-02-28T13:02:11;11.30;99.90
26621;DHT22;14253;44.840;10.444;2024-02-28T13:04:37;11.30;99.90
26621;DHT22;14253;44.840;10.444;2024-02-28T13:07:03;11.30;99.90
26621;DHT22;14253;44.840;10.444;2024-02-28T13:09:29;11.30;99.90
26621;DHT22;14253;44.840;10.444;2024-02-28T13:11:55;11.30;99.90
26621;DHT22;14253;44.840;10.444;2024-02-28T13:14:21;11.30;99.90
26621;DHT22;14253;44.840;10.444;2024-02-28T13:16:47;11.30;99.90
26621;DHT22;14253;44.840;10.444;2024-02-28T13:19:14;11.30;99.90
26621;DHT22;14253;44.840;10.444;2024-02-28T13:21:41;11.30;99.90
26621;DHT22;14253;44.840;10.444;2024-02-28T13:24:10;11.20;99.90
26621;DHT22;14253;44.840;10.444;2024-02-28T13:26:36;11.20;99.90
26621;DHT22;14253;44.840;10.444;2024-02-28T13:29:02;11.20;99.90
26621;DHT22;14253;44.840;10.444;2024-02-28T13:31:28;11.20;99.90
26621;DHT22;14253;44.840;10.444;2024-02-28T13:33:55;11.20;99.90
26621;DHT22;14253;44.840;10.444;2024-02-28T13:36:27;11.20;99.90
26621;DHT22;14253;44.840;10.444;2024-02-28T13:38:54;11.30;99.90
26621;DHT22;14253;44.840;10.444;2024-02-28T13:41:21;11.20;99.90
26621;DHT22;14253;44.840;10.444;2024-02-28T13:43:47;11.20;99.90
26621;DHT22;14253;44.840;10.444;2024-02-28T13:46:14;11.20;99.90
26621;DHT22;14253;44.840;10.444;2024-02-28T13:48:41;11.20;99.90
26621;DHT22;14253;44.840;10.444;2024-02-28T13:51:06;11.20;99.90
26621;DHT22;14253;44.840;10.444;2024-02-28T13:53:34;11.20;99.90
26621;DHT22;14253;44.840;10.444;2024-02-28T13:56:00;11.20;99.90
26621;DHT22;14253;44.840;10.444;2024-02-28T13:58:26;11.20;99.90
26621;DHT22;14253;44.840;10.444;2024-02-28T14:00:54;11.20;99.90
26621;DHT22;14253;44.840;10.444;2024-02-28T14:03:21;11.20;99.90
26621;DHT22;14253;44.840;10.444;2024-02-28T14:05:49;11.20;99.90
26621;DHT22;14253;44.840;10.444;2024-02-28T14:08:15;11.20;99.90
26621;DHT22;14253;44.840;10.444;2024-02-28T14:10:41;11.20;99.90
26621;DHT22;14253;44.840;10.444;2024-02-28T14:13:07;11.10;99.90
26621;DHT22;14253;44.840;10.444;2024-02-28T14:15:33;11.20;99.90
26621;DHT22;14253;44.840;10.444;2024-02-28T14:18:02;11.20;99.90
26621;DHT22;14253;44.840;10.444;2024-02-28T14:20:29;11.20;99.90
26621;DHT22;14253;44.840;10.444;2024-02-28T14:22:55;11.20;99.90
26621;DHT22;14253;44.840;10.444;2024-02-28T14:25:23;11.10;99.90
26621;DHT22;14253;44.840;10.444;2024-02-28T14:27:50;11.10;99.90
26621;DHT22;14253;44.840;10.444;2024-02-28T14:30:16;11.10;99.90
26621;DHT22;14253;44.840;10.444;2024-02-28T14:32:45;11.10;99.90
26621;DHT22;14253;44.840;10.444;2024-02-28T14:35:11;11.10;99.90
26621;DHT22;14253;44.840;10.444;2024-02-28T14:37:40;11.10;99.90
26621;DHT22;14253;44.840;10.444;2024-02-28T14:40:08;11.10;99.90
26621;DHT22;14253;44.840;10.444;2024-02-28T14:45:07;11.10;99.90
26621;DHT22;14253;44.840;10.444;2024-02-28T14:47:34;11.10;99.90
26621;DHT22;14253;44.840;10.444;2024-02-28T14:50:05;11.10;99.90
26621;DHT22;14253;44.840;10.444;2024-02-28T14:52:31;11.10;99.90
26621;DHT22;14253;44.840;10.444;2024-02-28T14:54:58;11.10;99.90
26621;DHT22;14253;44.840;10.444;2024-02-28T14:57:24;11.10;99.90
26621;DHT22;14253;44.840;10.444;2024-02-28T14:59:50;11.10;99.90
26621;DHT22;14253;44.840;10.444;2024-02-28T15:02:16;11.20;99.90
26621;DHT22;14253;44.840;10.444;2024-02-28T15:04:42;11.20;99.90
26621;DHT22;14253;44.840;10.444;2024-02-28T15:07:08;11.20;99.90
26621;DHT22;14253;44.840;10.444;2024-02-28T15:09:34;11.20;99.90
26621;DHT22;14253;44.840;10.444;2024-02-28T15:12:00;11.20;99.90
26621;DHT22;14253;44.840;10.444;2024-02-28T15:14:27;11.30;99.90
26621;DHT22;14253;44.840;10.444;2024-02-28T15:16:53;11.30;99.90
26621;DHT22;14253;44.840;10.444;2024-02-28T15:19:22;11.30;99.90